الصفحة الرئيسية
METAR-TAF:

METAR-TAF

مطار :

McKinley Park, ألاسكا, الولايات المتحدة

دائرة عرض: 63-44N, خط طول: 148-55W, ارتفاع: 524 متر

مراقبة الطقس الحالي

تاريخ ووقت الإصدار 27 دقيقة قبل الساعة 21:56UTC
ريح 8 عقدة من الشرق
درجة الحرارة 17°درجة مئوية
الرطوبة 36%
ضغط 1011 hPa
الرؤية: 16.1 كم
غيوم قليلة على ارتفاع 10000 قدم

METAR: PAIN 292156Z AUTO 10008KT 10SM FEW100 17/02 A2985 RMK AO2 SLP118 T01720017

زمن: 14:23 (22:23 UTC)


TAF: مفقودة

أرصاد الطقس والتوقعات من أكثر من 4000 مطار (تقارير الطقس للمطار METAR والتنبؤ بالطقس بالمطارTAF).

المحطات المتاحة هي النقط الصفراء والحمراء على الخريطة.

حرك المؤشر فوق النقطة لمعرفة اسم المحطة.

ثم انقر لمعرفة أرصاد وتوقعات الطقس.

لتغيير الخارطة: اضغط على الأزرار الخضراء مع رمز الصليب الأسود للتكبير. على الزر الأخضر مع شرطة للتصغير، أو على الأسهم الخضراء للخرائط المجاورة.


METAR-TAF: